createdAt,value
2022-11-12T00:10:48.332Z,6.10
2022-11-12T00:17:49.567Z,6.00
2022-11-12T00:24:50.689Z,5.90
2022-11-12T00:38:52.731Z,5.90
2022-11-12T00:45:53.545Z,5.70
2022-11-12T01:21:03.136Z,5.60
2022-11-12T01:56:15.581Z,5.50
2022-11-12T02:03:21.413Z,5.40
2022-11-12T02:10:22.510Z,5.40
2022-11-12T02:17:23.257Z,5.40
2022-11-12T02:24:23.928Z,5.40
2022-11-12T02:31:24.791Z,5.40
2022-11-12T02:38:26.568Z,5.30
2022-11-12T02:45:28.641Z,5.20
2022-11-12T02:52:29.636Z,5.20
2022-11-12T02:59:30.865Z,5.30
2022-11-12T03:06:31.538Z,5.20
2022-11-12T03:13:32.463Z,5.10
2022-11-12T03:20:34.688Z,5.10
2022-11-12T03:27:35.995Z,5.00
2022-11-12T03:34:37.183Z,5.00
2022-11-12T03:41:38.277Z,5.10
2022-11-12T03:48:38.871Z,4.90
2022-11-12T03:55:39.603Z,4.80
2022-11-12T04:02:40.660Z,4.70
2022-11-12T04:09:41.634Z,4.70
2022-11-12T04:17:01.072Z,4.80
2022-11-12T04:24:02.093Z,4.80
2022-11-12T04:31:03.143Z,4.80
2022-11-12T04:38:03.964Z,4.90
2022-11-12T04:45:10.004Z,4.90
2022-11-12T04:52:11.210Z,4.90
2022-11-12T04:59:12.098Z,4.90
2022-11-12T05:06:31.441Z,5.00
2022-11-12T05:13:32.466Z,5.00
2022-11-12T05:20:34.588Z,5.00
2022-11-12T05:27:35.720Z,5.00
2022-11-12T05:34:36.666Z,5.10
2022-11-12T05:42:05.873Z,5.10
2022-11-12T05:48:58.504Z,5.00
2022-11-12T05:56:03.652Z,4.90
2022-11-12T06:03:05.220Z,4.90
2022-11-12T06:10:06.647Z,4.80
2022-11-12T06:17:11.245Z,4.80
2022-11-12T06:24:12.389Z,4.70
2022-11-12T06:31:13.714Z,4.70
2022-11-12T06:38:15.561Z,4.60
2022-11-12T06:45:16.446Z,4.60
2022-11-12T06:52:17.540Z,4.70
2022-11-12T06:59:18.523Z,4.70
2022-11-12T07:06:20.666Z,4.80
2022-11-12T07:13:21.856Z,5.00
2022-11-12T07:20:23.063Z,5.20
2022-11-12T07:27:23.948Z,5.60
2022-11-12T07:34:24.943Z,5.80
2022-11-12T07:41:25.980Z,5.80
2022-11-12T07:48:28.522Z,5.90
2022-11-12T07:55:29.604Z,7.70
2022-11-12T08:02:30.512Z,8.40
2022-11-12T08:09:31.241Z,10.90
2022-11-12T08:16:32.113Z,12.00
2022-11-12T08:23:32.780Z,10.60
2022-11-12T08:30:33.563Z,9.70
2022-11-12T08:37:34.652Z,11.30
2022-11-12T08:44:35.686Z,11.80
2022-11-12T08:51:36.649Z,12.70
2022-11-12T08:58:38.072Z,12.80
2022-11-12T09:05:40.394Z,13.70
2022-11-12T09:12:41.435Z,14.20
2022-11-12T09:19:43.198Z,13.90
2022-11-12T09:26:44.189Z,12.60
2022-11-12T09:33:45.021Z,12.80
2022-11-12T09:40:51.556Z,13.30
2022-11-12T09:47:58.934Z,13.90
2022-11-12T09:55:13.441Z,14.50
2022-11-12T10:02:42.530Z,14.30
2022-11-12T10:10:09.173Z,14.20
2022-11-12T10:17:37.041Z,14.00
2022-11-12T10:24:39.004Z,12.80
2022-11-12T10:31:39.874Z,11.90
2022-11-12T10:38:45.092Z,12.30
2022-11-12T10:45:48.239Z,13.30
2022-11-12T10:52:58.988Z,12.50
2022-11-12T11:00:18.828Z,12.80
2022-11-12T11:07:25.146Z,13.20
2022-11-12T11:14:34.646Z,13.40
2022-11-12T11:21:54.211Z,13.70
2022-11-12T11:29:22.788Z,13.60
2022-11-12T11:36:42.891Z,13.80
2022-11-12T11:44:17.848Z,13.60
2022-11-12T11:51:30.867Z,13.40
2022-11-12T11:58:53.922Z,13.50
2022-11-12T12:06:19.798Z,13.60
2022-11-12T12:13:55.031Z,13.80
2022-11-12T12:21:13.271Z,13.90
2022-11-12T12:28:44.131Z,14.10
2022-11-12T12:35:56.026Z,14.20
2022-11-12T12:43:07.233Z,14.20
2022-11-12T12:50:14.049Z,14.10
2022-11-12T12:57:30.869Z,14.40
2022-11-12T13:04:58.252Z,14.40
2022-11-12T13:12:05.401Z,14.50
2022-11-12T13:19:07.581Z,14.50
2022-11-12T13:26:39.560Z,14.40
2022-11-12T13:33:40.597Z,14.50
2022-11-12T13:41:15.111Z,14.50
2022-11-12T13:48:38.734Z,14.50
2022-11-12T13:55:48.834Z,14.40
2022-11-12T14:02:54.089Z,14.20
2022-11-12T14:10:08.240Z,14.20
2022-11-12T14:17:22.535Z,14.10
2022-11-12T14:24:23.934Z,13.80
2022-11-12T14:31:25.858Z,13.70
2022-11-12T14:38:51.267Z,13.50
2022-11-12T14:45:54.987Z,13.50
2022-11-12T14:53:13.394Z,13.10
2022-11-12T15:00:43.507Z,12.90
2022-11-12T15:08:03.941Z,12.70
2022-11-12T15:15:22.711Z,12.60
2022-11-12T15:22:23.641Z,12.40
2022-11-12T15:29:28.167Z,12.20
2022-11-12T15:36:28.971Z,12.10
2022-11-12T15:43:35.456Z,11.90
2022-11-12T15:50:36.390Z,11.70
2022-11-12T15:57:50.452Z,11.40
2022-11-12T16:04:51.386Z,11.00
2022-11-12T16:11:57.251Z,10.80
2022-11-12T16:18:57.914Z,10.70
2022-11-12T16:25:59.917Z,10.40
2022-11-12T16:33:01.796Z,10.10
2022-11-12T16:40:02.803Z,10.00
2022-11-12T16:47:05.432Z,9.80
2022-11-12T16:54:06.787Z,9.60
2022-11-12T17:01:13.890Z,9.50
2022-11-12T17:08:15.003Z,9.30
2022-11-12T17:15:16.421Z,9.10
2022-11-12T17:22:19.885Z,9.10
2022-11-12T17:29:21.053Z,8.90
2022-11-12T17:36:24.778Z,8.80
2022-11-12T17:43:26.095Z,8.70
2022-11-12T17:50:27.384Z,8.60
2022-11-12T17:57:28.389Z,8.50
2022-11-12T18:04:30.947Z,8.40
2022-11-12T18:11:42.750Z,8.30
2022-11-12T18:18:44.074Z,7.90
2022-11-12T18:25:45.264Z,7.90
2022-11-12T18:32:46.282Z,7.80
2022-11-12T18:39:49.130Z,7.70
2022-11-12T18:46:50.200Z,7.60
2022-11-12T18:53:51.291Z,7.50
2022-11-12T19:07:53.510Z,7.40
2022-11-12T19:14:54.593Z,7.10
2022-11-12T19:21:55.558Z,7.00
2022-11-12T19:28:56.565Z,6.80
2022-11-12T19:35:59.915Z,6.80
2022-11-12T19:43:03.226Z,6.90
2022-11-12T19:50:04.538Z,6.90
2022-11-12T19:57:06.203Z,6.90
2022-11-12T20:04:07.033Z,6.80
2022-11-12T20:11:08.214Z,6.70
2022-11-12T20:18:09.473Z,6.60
2022-11-12T20:25:11.577Z,6.40
2022-11-12T20:32:12.374Z,6.20
2022-11-12T20:39:13.283Z,6.10
2022-11-12T20:46:14.445Z,6.10
2022-11-12T20:53:15.269Z,6.20
2022-11-12T21:00:21.379Z,6.10
2022-11-12T21:07:25.141Z,5.90
2022-11-12T21:14:26.152Z,5.80
2022-11-12T21:21:31.259Z,5.70
2022-11-12T21:28:38.313Z,5.70
2022-11-12T21:35:39.051Z,5.70
2022-11-12T21:42:44.246Z,5.50
2022-11-12T21:49:45.243Z,5.40
2022-11-12T21:56:45.860Z,5.40
2022-11-12T22:03:48.697Z,5.10
2022-11-12T22:10:49.615Z,5.10
2022-11-12T22:17:50.577Z,5.10
2022-11-12T22:24:52.020Z,5.00
2022-11-12T22:31:53.291Z,5.10
2022-11-12T22:38:55.866Z,5.10
2022-11-12T22:45:56.690Z,5.00
2022-11-12T22:52:57.656Z,5.00
2022-11-12T22:59:58.833Z,4.90
2022-11-12T23:06:59.894Z,5.00
2022-11-12T23:14:01.057Z,4.90
2022-11-12T23:21:07.762Z,4.90
2022-11-12T23:28:08.696Z,4.90
2022-11-12T23:35:09.769Z,4.90
2022-11-12T23:42:10.828Z,4.90
2022-11-12T23:49:12.080Z,4.70
2022-11-12T23:56:15.181Z,4.80
